createdAt,value
2023-03-21T00:02:18.295Z,3.08
2023-03-21T00:04:52.601Z,3.40
2023-03-21T00:07:23.974Z,3.17
2023-03-21T00:10:04.789Z,3.12
2023-03-21T00:12:31.335Z,3.00
2023-03-21T00:15:04.885Z,3.20
2023-03-21T00:17:38.934Z,2.92
2023-03-21T00:20:16.583Z,2.80
2023-03-21T00:22:49.014Z,2.60
2023-03-21T00:25:39.100Z,2.80
2023-03-21T00:28:11.513Z,2.30
2023-03-21T00:30:43.308Z,2.83
2023-03-21T00:36:01.831Z,2.98
2023-03-21T00:38:27.017Z,2.67
2023-03-21T00:41:04.672Z,2.95
2023-03-21T00:43:33.015Z,2.75
2023-03-21T00:46:05.906Z,2.80
2023-03-21T00:48:38.010Z,2.83
2023-03-21T00:51:22.519Z,2.50
2023-03-21T00:53:58.584Z,3.72
2023-03-21T00:56:32.685Z,2.65
2023-03-21T00:59:04.944Z,2.58
2023-03-21T01:01:37.398Z,2.52
2023-03-21T01:04:12.930Z,2.65
2023-03-21T01:06:45.930Z,2.87
2023-03-21T01:09:20.831Z,3.17
2023-03-21T01:11:52.986Z,2.98
2023-03-21T01:14:25.048Z,2.90
2023-03-21T01:16:58.075Z,3.10
2023-03-21T01:19:48.319Z,3.00
2023-03-21T01:22:04.664Z,3.08
2023-03-21T01:24:40.529Z,2.50
2023-03-21T01:27:10.603Z,3.47
2023-03-21T01:29:42.732Z,2.55
2023-03-21T01:32:14.756Z,2.75
2023-03-21T01:34:46.744Z,2.42
2023-03-21T01:37:20.084Z,3.40
2023-03-21T01:39:53.796Z,3.10
2023-03-21T01:42:26.465Z,3.20
2023-03-21T01:45:01.445Z,3.10
2023-03-21T01:47:40.661Z,2.95
2023-03-21T01:50:23.384Z,3.75
2023-03-21T01:52:59.945Z,2.70
2023-03-21T01:55:33.859Z,3.52
2023-03-21T01:58:14.206Z,3.10
2023-03-21T02:00:51.178Z,2.90
2023-03-21T02:03:42.516Z,3.40
2023-03-21T02:06:29.496Z,3.17
2023-03-21T02:09:05.842Z,3.75
2023-03-21T02:11:38.986Z,3.80
2023-03-21T02:14:17.761Z,3.20
2023-03-21T02:17:13.250Z,3.00
2023-03-21T02:20:11.852Z,3.00
2023-03-21T02:22:53.218Z,3.67
2023-03-21T02:25:33.577Z,3.00
2023-03-21T02:28:14.603Z,2.98
2023-03-21T02:31:01.951Z,3.27
2023-03-21T02:33:57.661Z,3.10
2023-03-21T02:36:54.885Z,3.33
2023-03-21T02:39:38.701Z,2.80
2023-03-21T02:42:28.387Z,3.13
2023-03-21T02:45:12.416Z,3.33
2023-03-21T02:47:52.789Z,2.87
2023-03-21T02:50:48.520Z,3.00
2023-03-21T02:56:13.030Z,3.40
2023-03-21T02:58:47.890Z,3.37
2023-03-21T03:01:27.197Z,3.30
2023-03-21T03:03:59.979Z,3.40
2023-03-21T03:06:40.341Z,3.50
2023-03-21T03:09:27.490Z,3.17
2023-03-21T03:12:08.131Z,3.50
2023-03-21T03:15:00.243Z,3.33
2023-03-21T03:17:27.959Z,3.35
2023-03-21T03:20:16.470Z,2.83
2023-03-21T03:23:06.650Z,3.70
2023-03-21T03:25:50.512Z,2.95
2023-03-21T03:28:25.796Z,3.10
2023-03-21T03:31:09.096Z,3.55
2023-03-21T03:33:37.350Z,3.45
2023-03-21T03:36:28.438Z,3.40
2023-03-21T03:38:49.112Z,2.85
2023-03-21T03:41:25.679Z,3.90
2023-03-21T03:44:02.574Z,4.03
2023-03-21T03:46:39.223Z,3.72
2023-03-21T03:49:20.513Z,3.20
2023-03-21T03:52:01.332Z,3.10
2023-03-21T03:54:40.882Z,5.47
2023-03-21T03:57:14.528Z,3.85
2023-03-21T03:59:47.969Z,4.20
2023-03-21T04:02:39.923Z,3.70
2023-03-21T04:05:13.099Z,3.72
2023-03-21T04:07:45.249Z,3.52
2023-03-21T04:10:17.544Z,4.58
2023-03-21T04:12:50.368Z,4.35
2023-03-21T04:15:24.082Z,3.80
2023-03-21T04:17:57.955Z,4.42
2023-03-21T04:20:37.044Z,4.28
2023-03-21T04:23:04.437Z,4.45
2023-03-21T04:25:44.692Z,5.05
2023-03-21T04:28:12.670Z,2.90
2023-03-21T04:31:00.434Z,3.42
2023-03-21T04:33:22.009Z,3.85
2023-03-21T04:35:59.498Z,4.23
2023-03-21T04:38:34.046Z,3.70
2023-03-21T04:41:07.689Z,3.25
2023-03-21T04:43:40.217Z,4.05
2023-03-21T04:46:12.620Z,4.40
2023-03-21T04:48:44.628Z,4.03
2023-03-21T04:51:17.519Z,3.77
2023-03-21T04:53:51.414Z,3.50
2023-03-21T04:56:24.952Z,4.12
2023-03-21T04:58:57.661Z,4.35
2023-03-21T05:01:33.382Z,4.33
2023-03-21T05:04:06.313Z,3.72
2023-03-21T05:06:39.145Z,4.33
2023-03-21T05:09:11.925Z,3.62
2023-03-21T05:11:44.381Z,3.92
2023-03-21T05:14:20.903Z,3.52
2023-03-21T05:16:57.582Z,4.28
2023-03-21T05:19:38.903Z,3.90
2023-03-21T05:22:14.346Z,4.05
2023-03-21T05:24:51.195Z,3.20
2023-03-21T05:27:36.657Z,3.75
2023-03-21T05:30:19.026Z,3.27
2023-03-21T05:32:53.194Z,3.95
2023-03-21T05:35:26.879Z,3.92
2023-03-21T05:38:00.551Z,2.98
2023-03-21T05:40:34.682Z,3.35
2023-03-21T05:43:07.539Z,4.60
2023-03-21T05:45:52.769Z,3.45
2023-03-21T05:48:25.759Z,3.70
2023-03-21T05:51:06.310Z,3.62
2023-03-21T05:53:38.681Z,3.47
2023-03-21T05:56:11.515Z,4.30
2023-03-21T05:58:45.534Z,4.47
2023-03-21T06:01:17.602Z,3.77
2023-03-21T06:04:04.221Z,3.92
2023-03-21T06:06:36.837Z,4.12
2023-03-21T06:09:09.575Z,5.67
2023-03-21T06:11:46.081Z,5.05
2023-03-21T06:14:31.728Z,4.03
2023-03-21T06:17:17.301Z,4.65
2023-03-21T06:19:54.009Z,5.15
2023-03-21T06:22:31.772Z,4.22
2023-03-21T06:25:07.666Z,4.30
2023-03-21T06:27:40.365Z,4.25
2023-03-21T06:30:13.119Z,4.58
2023-03-21T06:32:46.941Z,4.42
2023-03-21T06:35:21.545Z,4.58
2023-03-21T06:37:53.705Z,4.67
2023-03-21T06:40:26.437Z,4.20
2023-03-21T06:42:59.796Z,4.42
2023-03-21T06:45:31.806Z,4.28
2023-03-21T06:48:04.632Z,5.37
2023-03-21T06:50:38.497Z,4.28
2023-03-21T06:53:11.246Z,4.10
2023-03-21T06:55:46.816Z,4.43
2023-03-21T06:58:19.464Z,4.60
2023-03-21T07:00:52.182Z,4.37
2023-03-21T07:03:24.727Z,3.58
2023-03-21T07:05:56.972Z,3.87
2023-03-21T07:08:30.703Z,3.83
2023-03-21T07:11:02.945Z,4.75
2023-03-21T07:13:35.316Z,4.50
2023-03-21T07:16:10.392Z,4.22
2023-03-21T07:18:42.722Z,4.28
2023-03-21T07:21:16.343Z,4.17
2023-03-21T07:23:50.476Z,4.25
2023-03-21T07:26:23.154Z,4.42
2023-03-21T07:28:55.894Z,4.22
2023-03-21T07:31:30.439Z,4.30
2023-03-21T07:34:02.967Z,5.78
2023-03-21T07:36:37.174Z,4.45
2023-03-21T07:39:11.197Z,3.75
2023-03-21T07:41:43.882Z,4.15
2023-03-21T07:44:17.585Z,4.70
2023-03-21T07:46:49.662Z,4.72
2023-03-21T07:49:23.190Z,4.15
2023-03-21T07:51:56.182Z,3.75
2023-03-21T07:54:29.043Z,5.10
2023-03-21T07:57:01.395Z,4.85
2023-03-21T07:59:34.124Z,4.58
2023-03-21T08:02:07.393Z,4.95
2023-03-21T08:04:40.310Z,4.17
2023-03-21T08:07:12.795Z,5.30
2023-03-21T08:09:45.653Z,5.17
2023-03-21T08:12:18.498Z,5.15
2023-03-21T08:14:50.982Z,4.30
2023-03-21T08:17:23.149Z,4.22
2023-03-21T08:19:55.555Z,4.58
2023-03-21T08:22:27.833Z,5.08
2023-03-21T08:25:00.154Z,3.55
2023-03-21T08:27:33.285Z,5.00
2023-03-21T08:30:06.075Z,4.50
2023-03-21T08:32:38.817Z,5.28
2023-03-21T08:35:13.018Z,5.58
2023-03-21T08:37:45.492Z,4.30
2023-03-21T08:40:20.725Z,4.80
2023-03-21T08:42:53.077Z,3.95
2023-03-21T08:45:25.674Z,5.62
2023-03-21T08:47:58.446Z,5.20
2023-03-21T08:50:31.951Z,5.80
2023-03-21T08:53:04.121Z,5.33
2023-03-21T08:55:36.457Z,6.08
2023-03-21T08:58:08.842Z,3.90
2023-03-21T09:00:41.608Z,4.47
2023-03-21T09:03:14.310Z,4.15
2023-03-21T09:05:46.661Z,5.08
2023-03-21T09:08:20.420Z,4.53
2023-03-21T09:10:54.982Z,4.08
2023-03-21T09:13:27.233Z,4.65
2023-03-21T09:16:01.056Z,5.05
2023-03-21T09:18:40.900Z,5.23
2023-03-21T09:21:14.912Z,5.65
2023-03-21T09:23:47.274Z,4.92
2023-03-21T09:26:20.505Z,5.47
2023-03-21T09:28:53.868Z,5.50
2023-03-21T09:31:26.215Z,4.80
2023-03-21T09:33:58.758Z,4.87
2023-03-21T09:36:32.119Z,4.60
2023-03-21T09:39:05.927Z,5.08
2023-03-21T09:41:50.405Z,5.33
2023-03-21T09:44:44.777Z,4.60
2023-03-21T09:47:24.761Z,5.03
2023-03-21T09:50:14.188Z,4.53
2023-03-21T09:53:00.432Z,4.55
2023-03-21T09:55:35.893Z,5.40
2023-03-21T09:58:44.737Z,5.92
2023-03-21T10:01:36.109Z,4.65
2023-03-21T10:04:10.850Z,4.72
2023-03-21T10:09:24.747Z,4.97
2023-03-21T10:12:07.646Z,5.20
2023-03-21T10:14:45.480Z,4.47
2023-03-21T10:17:35.232Z,3.62
2023-03-21T10:20:19.682Z,3.92
2023-03-21T10:22:55.251Z,5.20
2023-03-21T10:25:36.547Z,4.75
2023-03-21T10:28:11.163Z,5.53
2023-03-21T10:33:18.605Z,4.05
2023-03-21T10:35:57.359Z,5.00
2023-03-21T10:38:30.790Z,4.10
2023-03-21T10:41:02.902Z,3.40
2023-03-21T10:43:40.964Z,4.03
2023-03-21T10:46:21.842Z,4.25
2023-03-21T10:48:55.789Z,4.33
2023-03-21T10:51:30.976Z,3.65
2023-03-21T10:54:08.749Z,3.40
2023-03-21T10:56:43.940Z,4.37
2023-03-21T10:59:23.715Z,3.60
2023-03-21T11:01:58.133Z,3.70
2023-03-21T11:07:11.077Z,3.55
2023-03-21T11:09:57.990Z,3.75
2023-03-21T11:12:39.443Z,3.52
2023-03-21T11:15:31.142Z,3.47
2023-03-21T11:18:06.249Z,3.50
2023-03-21T11:20:41.586Z,3.52
2023-03-21T11:23:14.808Z,3.95
2023-03-21T11:25:49.859Z,3.40
2023-03-21T11:28:24.462Z,4.55
2023-03-21T11:30:59.959Z,4.05
2023-03-21T11:33:38.659Z,4.05
2023-03-21T11:36:23.093Z,2.40
2023-03-21T11:39:01.234Z,3.30
2023-03-21T11:41:35.758Z,3.15
2023-03-21T11:44:10.148Z,4.08
2023-03-21T11:46:42.487Z,3.35
2023-03-21T11:49:14.626Z,3.20
2023-03-21T11:51:58.600Z,2.80
2023-03-21T11:54:36.267Z,3.10
2023-03-21T11:57:12.079Z,3.37
2023-03-21T11:59:59.122Z,3.30
2023-03-21T12:02:52.682Z,3.70
2023-03-21T12:05:36.979Z,2.83
2023-03-21T12:08:29.940Z,3.30
2023-03-21T12:11:08.010Z,3.70
2023-03-21T12:13:54.712Z,3.27
2023-03-21T12:16:30.625Z,3.17
2023-03-21T12:19:29.654Z,4.65
2023-03-21T12:22:23.585Z,3.30
2023-03-21T12:25:01.268Z,3.58
2023-03-21T12:27:37.776Z,3.37
2023-03-21T12:30:33.368Z,2.50
2023-03-21T12:33:26.157Z,2.33
2023-03-21T12:36:18.227Z,2.70
2023-03-21T12:39:02.451Z,2.65
2023-03-21T12:41:43.393Z,2.65
2023-03-21T12:44:20.456Z,3.50
2023-03-21T12:46:58.235Z,2.70
2023-03-21T12:49:36.173Z,3.27
2023-03-21T12:52:11.208Z,3.25
2023-03-21T12:54:46.385Z,2.37
2023-03-21T12:57:24.616Z,3.00
2023-03-21T12:59:59.744Z,2.70
2023-03-21T13:02:36.422Z,4.08
2023-03-21T13:05:33.424Z,3.20
2023-03-21T13:08:08.347Z,2.80
2023-03-21T13:10:43.062Z,4.37
2023-03-21T13:13:20.510Z,3.37
2023-03-21T13:16:01.283Z,3.33
2023-03-21T13:19:03.402Z,4.30
2023-03-21T13:21:53.153Z,4.55
2023-03-21T13:24:36.651Z,3.60
2023-03-21T13:27:17.351Z,4.08
2023-03-21T13:29:55.458Z,5.60
2023-03-21T13:32:33.249Z,4.30
2023-03-21T13:35:28.841Z,2.80
2023-03-21T13:38:10.878Z,3.83
2023-03-21T13:40:52.040Z,3.35
2023-03-21T13:43:48.140Z,3.10
2023-03-21T13:46:43.264Z,3.00
2023-03-21T13:49:14.980Z,3.40
2023-03-21T13:51:55.352Z,3.27
2023-03-21T13:54:51.542Z,2.50
2023-03-21T13:57:26.546Z,4.05
2023-03-21T14:00:25.744Z,2.83
2023-03-21T14:03:03.832Z,2.80
2023-03-21T14:05:37.883Z,3.50
2023-03-21T14:08:19.307Z,2.67
2023-03-21T14:10:50.333Z,2.83
2023-03-21T14:13:25.413Z,2.45
2023-03-21T14:16:05.651Z,2.62
2023-03-21T14:18:54.173Z,2.65
2023-03-21T14:21:25.464Z,3.50
2023-03-21T14:24:09.003Z,3.10
2023-03-21T14:26:47.050Z,3.20
2023-03-21T14:29:33.883Z,3.22
2023-03-21T14:32:06.510Z,2.40
2023-03-21T14:34:40.957Z,3.12
2023-03-21T14:37:13.786Z,2.98
2023-03-21T14:39:45.965Z,3.50
2023-03-21T14:42:19.832Z,2.90
2023-03-21T14:44:55.910Z,2.52
2023-03-21T14:47:29.076Z,2.98
2023-03-21T14:50:02.074Z,3.37
2023-03-21T14:52:35.717Z,3.90
2023-03-21T14:55:10.835Z,3.17
2023-03-21T14:57:43.981Z,3.20
2023-03-21T15:00:23.157Z,3.00
2023-03-21T15:02:57.645Z,3.70
2023-03-21T15:05:37.656Z,3.42
2023-03-21T15:08:16.164Z,3.52
2023-03-21T15:11:08.115Z,4.05
2023-03-21T15:13:36.456Z,2.80
2023-03-21T15:16:10.651Z,3.02
2023-03-21T15:18:44.315Z,2.95
2023-03-21T15:21:27.453Z,3.42
2023-03-21T15:24:02.394Z,3.10
2023-03-21T15:26:35.125Z,2.92
2023-03-21T15:29:08.562Z,2.77
2023-03-21T15:31:42.150Z,3.12
2023-03-21T15:34:27.688Z,3.15
2023-03-21T15:37:05.698Z,3.35
2023-03-21T15:39:37.807Z,3.15
2023-03-21T15:42:27.927Z,3.00
2023-03-21T15:45:03.247Z,2.70
2023-03-21T15:47:53.420Z,2.80
2023-03-21T15:50:29.704Z,3.42
2023-03-21T15:53:04.482Z,2.90
2023-03-21T15:55:39.719Z,2.87
2023-03-21T15:58:18.553Z,3.10
2023-03-21T16:00:59.839Z,3.35
2023-03-21T16:03:34.527Z,3.37
2023-03-21T16:06:15.589Z,3.17
2023-03-21T16:08:53.244Z,2.60
2023-03-21T16:11:28.527Z,3.65
2023-03-21T16:14:01.194Z,4.12
2023-03-21T16:16:33.892Z,3.22
2023-03-21T16:19:07.624Z,3.45
2023-03-21T16:21:40.325Z,4.58
2023-03-21T16:24:13.614Z,3.55
2023-03-21T16:26:51.647Z,2.72
2023-03-21T16:29:23.809Z,3.33
2023-03-21T16:31:56.429Z,3.22
2023-03-21T16:34:29.460Z,4.47
2023-03-21T16:37:01.430Z,3.10
2023-03-21T16:39:33.531Z,3.00
2023-03-21T16:42:05.941Z,3.08
2023-03-21T16:44:39.605Z,3.08
2023-03-21T16:47:17.826Z,3.10
2023-03-21T16:49:49.965Z,3.27
2023-03-21T16:52:23.961Z,3.80
2023-03-21T16:54:55.907Z,3.33
2023-03-21T16:57:28.502Z,4.22
2023-03-21T17:00:01.228Z,3.25
2023-03-21T17:02:33.839Z,4.40
2023-03-21T17:05:07.779Z,3.22
2023-03-21T17:07:40.035Z,3.40
2023-03-21T17:10:27.147Z,4.17
2023-03-21T17:12:59.147Z,3.87
2023-03-21T17:15:31.230Z,3.85
2023-03-21T17:18:03.429Z,3.17
2023-03-21T17:20:38.472Z,3.47
2023-03-21T17:23:11.055Z,2.87
2023-03-21T17:25:43.022Z,3.00
2023-03-21T17:28:15.169Z,4.10
2023-03-21T17:30:47.193Z,2.30
2023-03-21T17:33:19.568Z,3.70
2023-03-21T17:35:51.858Z,3.17
2023-03-21T17:38:23.944Z,2.90
2023-03-21T17:40:56.002Z,4.08
2023-03-21T17:43:28.029Z,4.78
2023-03-21T17:46:00.105Z,4.65
2023-03-21T17:48:32.335Z,5.22
2023-03-21T17:51:04.408Z,5.80
2023-03-21T17:53:36.345Z,5.50
2023-03-21T17:56:10.359Z,6.50
2023-03-21T17:58:42.404Z,6.95
2023-03-21T18:01:14.949Z,4.25
2023-03-21T18:03:47.234Z,7.37
2023-03-21T18:06:24.244Z,7.45
2023-03-21T18:08:56.344Z,8.33
2023-03-21T18:11:29.125Z,8.65
2023-03-21T18:14:15.446Z,7.50
2023-03-21T18:16:35.094Z,8.20
2023-03-21T18:19:07.487Z,10.78
2023-03-21T18:21:40.815Z,9.10
2023-03-21T18:24:12.678Z,8.95
2023-03-21T18:26:46.195Z,10.38
2023-03-21T18:30:17.495Z,6.15
2023-03-21T18:32:05.530Z,10.13
2023-03-21T18:34:27.962Z,10.67
2023-03-21T18:37:02.776Z,9.93
2023-03-21T18:39:34.778Z,9.55
2023-03-21T18:42:07.529Z,10.03
2023-03-21T18:44:42.264Z,10.50
2023-03-21T18:47:15.096Z,11.05
2023-03-21T18:50:12.415Z,11.73
2023-03-21T18:52:21.492Z,6.20
2023-03-21T18:54:54.522Z,10.95
2023-03-21T18:57:36.422Z,9.80
2023-03-21T19:00:01.537Z,10.23
2023-03-21T19:02:33.705Z,10.18
2023-03-21T19:05:06.225Z,10.00
2023-03-21T19:07:38.535Z,10.82
2023-03-21T19:10:20.002Z,10.63
2023-03-21T19:12:44.699Z,10.65
2023-03-21T19:15:19.265Z,9.73
2023-03-21T19:20:25.048Z,9.10
2023-03-21T19:22:57.255Z,9.98
2023-03-21T19:25:29.234Z,9.28
2023-03-21T19:28:01.334Z,9.43
2023-03-21T19:30:34.148Z,8.83
2023-03-21T19:33:06.573Z,8.38
2023-03-21T19:35:40.956Z,8.98
2023-03-21T19:40:45.221Z,8.68
2023-03-21T19:43:33.716Z,9.35
2023-03-21T19:45:51.752Z,8.80
2023-03-21T19:48:23.970Z,8.88
2023-03-21T19:53:30.998Z,8.70
2023-03-21T19:56:04.887Z,9.23
2023-03-21T19:58:36.831Z,8.80
2023-03-21T20:01:11.519Z,8.25
2023-03-21T20:03:44.920Z,8.33
2023-03-21T20:06:17.427Z,9.13
2023-03-21T20:09:27.651Z,8.40
2023-03-21T20:11:23.116Z,8.15
2023-03-21T20:13:55.328Z,9.00
2023-03-21T20:16:34.110Z,8.23
2023-03-21T20:19:01.726Z,6.95
2023-03-21T20:21:45.221Z,8.85
2023-03-21T20:24:07.782Z,5.25
2023-03-21T20:26:39.772Z,8.43
2023-03-21T20:30:05.491Z,7.75
2023-03-21T20:31:45.637Z,6.97
2023-03-21T20:34:18.241Z,6.25
2023-03-21T20:36:50.488Z,7.92
2023-03-21T20:39:22.596Z,6.65
2023-03-21T20:41:54.961Z,8.40
2023-03-21T20:44:57.419Z,7.33
2023-03-21T20:47:00.832Z,7.62
2023-03-21T20:49:33.634Z,7.65
2023-03-21T20:54:40.596Z,7.50
2023-03-21T20:57:12.518Z,7.05
2023-03-21T20:59:45.809Z,7.78
2023-03-21T21:02:18.044Z,7.62
2023-03-21T21:05:21.574Z,7.55
2023-03-21T21:07:26.419Z,7.53
2023-03-21T21:12:29.456Z,7.55
2023-03-21T21:15:01.967Z,7.15
2023-03-21T21:18:02.012Z,7.05
2023-03-21T21:23:00.429Z,7.08
2023-03-21T21:25:24.470Z,7.17
2023-03-21T21:27:56.629Z,7.12
2023-03-21T21:30:29.569Z,8.08
2023-03-21T21:33:01.529Z,6.75
2023-03-21T21:35:33.873Z,6.65
2023-03-21T21:38:05.765Z,6.70
2023-03-21T21:40:38.031Z,7.03
2023-03-21T21:43:11.791Z,6.25
2023-03-21T21:45:43.729Z,6.80
2023-03-21T21:48:16.224Z,6.45
2023-03-21T21:50:51.597Z,5.97
2023-03-21T21:53:24.082Z,6.40
2023-03-21T21:56:01.024Z,4.92
2023-03-21T21:58:37.268Z,5.62
2023-03-21T22:01:09.442Z,6.17
2023-03-21T22:03:41.632Z,6.17
2023-03-21T22:06:14.221Z,6.70
2023-03-21T22:08:47.204Z,6.28
2023-03-21T22:11:19.584Z,5.58
2023-03-21T22:13:51.773Z,5.42
2023-03-21T22:16:23.892Z,5.65
2023-03-21T22:18:56.056Z,5.95
2023-03-21T22:21:28.282Z,5.65
2023-03-21T22:24:00.249Z,5.45
2023-03-21T22:26:33.704Z,5.83
2023-03-21T22:29:07.490Z,5.97
2023-03-21T22:31:41.077Z,6.15
2023-03-21T22:34:13.133Z,5.95
2023-03-21T22:36:46.888Z,5.78
2023-03-21T22:39:20.146Z,5.77
2023-03-21T22:41:52.153Z,5.97
2023-03-21T22:44:24.738Z,5.67
2023-03-21T22:46:56.754Z,5.62
2023-03-21T22:49:28.818Z,5.28
2023-03-21T22:52:01.621Z,5.72
2023-03-21T22:54:33.887Z,5.33
2023-03-21T22:57:06.580Z,5.60
2023-03-21T22:59:38.755Z,4.97
2023-03-21T23:02:11.434Z,5.72
2023-03-21T23:04:43.883Z,5.87
2023-03-21T23:07:16.055Z,5.87
2023-03-21T23:09:48.271Z,4.72
2023-03-21T23:12:20.376Z,5.75
2023-03-21T23:14:52.316Z,5.87
2023-03-21T23:17:24.336Z,5.45
2023-03-21T23:19:56.741Z,5.20
2023-03-21T23:22:32.947Z,4.90
2023-03-21T23:25:05.367Z,5.20
2023-03-21T23:27:37.993Z,4.78
2023-03-21T23:30:11.882Z,5.72
2023-03-21T23:32:44.007Z,4.87
2023-03-21T23:35:16.358Z,5.08
2023-03-21T23:37:49.897Z,5.22
2023-03-21T23:40:22.346Z,5.40
2023-03-21T23:42:54.244Z,5.85
2023-03-21T23:45:26.389Z,5.42
2023-03-21T23:48:04.682Z,5.20
2023-03-21T23:50:37.336Z,4.33
2023-03-21T23:53:09.722Z,5.28
2023-03-21T23:55:42.326Z,5.97
2023-03-21T23:58:14.893Z,5.25
